createdAt,value
2023-02-24T00:02:14.700Z,26.60
2023-02-24T00:04:45.186Z,31.20
2023-02-24T00:07:14.365Z,27.40
2023-02-24T00:09:45.118Z,26.40
2023-02-24T00:12:13.804Z,28.90
2023-02-24T00:14:55.495Z,24.90
2023-02-24T00:17:27.432Z,28.50
2023-02-24T00:19:55.755Z,25.40
2023-02-24T00:22:23.917Z,29.00
2023-02-24T00:24:54.224Z,30.10
2023-02-24T00:27:22.634Z,29.60
2023-02-24T00:29:50.371Z,28.50
2023-02-24T00:32:17.940Z,30.50
2023-02-24T00:34:47.639Z,28.10
2023-02-24T00:37:23.630Z,22.80
2023-02-24T00:39:52.287Z,27.50
2023-02-24T00:42:22.495Z,24.80
2023-02-24T00:44:49.803Z,30.00
2023-02-24T00:47:17.280Z,25.10
2023-02-24T00:49:46.527Z,24.30
2023-02-24T00:52:15.690Z,27.10
2023-02-24T00:54:48.331Z,25.90
2023-02-24T00:57:17.996Z,18.00
2023-02-24T00:59:51.610Z,16.40
2023-02-24T01:02:20.191Z,17.40
2023-02-24T01:04:50.664Z,15.60
2023-02-24T01:07:18.829Z,18.00
2023-02-24T01:09:46.354Z,15.50
2023-02-24T01:12:35.317Z,15.80
2023-02-24T01:15:09.147Z,18.40
2023-02-24T01:17:37.605Z,18.50
2023-02-24T01:20:16.744Z,19.00
2023-02-24T01:22:57.805Z,15.20
2023-02-24T01:25:27.183Z,19.80
2023-02-24T01:27:55.584Z,19.30
2023-02-24T01:30:23.345Z,17.20
2023-02-24T01:33:14.944Z,16.10
2023-02-24T01:35:42.342Z,16.70
2023-02-24T01:38:11.432Z,16.80
2023-02-24T01:40:44.763Z,16.30
2023-02-24T01:43:14.125Z,19.80
2023-02-24T01:45:43.031Z,17.10
2023-02-24T01:48:10.989Z,20.50
2023-02-24T01:50:38.700Z,19.30
2023-02-24T01:53:09.569Z,16.30
2023-02-24T01:55:43.181Z,20.20
2023-02-24T01:58:31.661Z,19.20
2023-02-24T02:01:00.038Z,17.50
2023-02-24T02:03:36.197Z,18.20
2023-02-24T02:06:10.835Z,22.20
2023-02-24T02:08:41.515Z,16.40
2023-02-24T02:11:13.189Z,16.10
2023-02-24T02:14:37.887Z,18.80
2023-02-24T02:17:25.920Z,22.80
2023-02-24T02:20:32.323Z,18.10
2023-02-24T02:23:32.005Z,17.90
2023-02-24T02:26:25.885Z,22.30
2023-02-24T02:29:10.847Z,18.40
2023-02-24T02:31:55.683Z,15.80
2023-02-24T02:34:38.537Z,20.90
2023-02-24T02:37:18.575Z,18.00
2023-02-24T02:40:23.130Z,24.00
2023-02-24T02:43:24.611Z,20.90
2023-02-24T02:46:03.556Z,20.20
2023-02-24T02:48:40.914Z,24.60
2023-02-24T02:51:13.038Z,23.70
2023-02-24T02:53:49.094Z,25.10
2023-02-24T02:56:19.629Z,24.00
2023-02-24T02:58:55.139Z,24.60
2023-02-24T03:01:25.499Z,23.00
2023-02-24T03:06:26.550Z,20.80
2023-02-24T03:09:18.906Z,20.10
2023-02-24T03:11:53.103Z,26.10
2023-02-24T03:14:24.558Z,22.10
2023-02-24T03:16:53.810Z,23.20
2023-02-24T03:19:36.917Z,26.20
2023-02-24T03:22:13.384Z,28.50
2023-02-24T03:24:43.938Z,25.60
2023-02-24T03:27:25.345Z,25.60
2023-02-24T03:29:55.373Z,24.20
2023-02-24T03:32:32.749Z,31.50
2023-02-24T03:35:16.576Z,23.40
2023-02-24T03:37:49.541Z,22.80
2023-02-24T03:40:16.861Z,31.40
2023-02-24T03:42:50.347Z,22.40
2023-02-24T03:45:18.002Z,28.60
2023-02-24T03:47:46.917Z,25.20
2023-02-24T03:50:17.521Z,27.80
2023-02-24T03:53:30.453Z,38.40
2023-02-24T03:56:03.644Z,26.20
2023-02-24T03:58:59.261Z,27.40
2023-02-24T04:01:33.149Z,22.60
2023-02-24T04:04:20.488Z,24.50
2023-02-24T04:10:32.610Z,27.50
2023-02-24T04:13:10.242Z,23.30
2023-02-24T04:15:43.408Z,23.70
2023-02-24T04:18:20.987Z,28.00
2023-02-24T04:20:52.999Z,19.70
2023-02-24T04:23:42.709Z,21.90
2023-02-24T04:26:12.947Z,18.10
2023-02-24T04:28:40.997Z,21.10
2023-02-24T04:31:12.855Z,23.10
2023-02-24T04:33:40.644Z,21.80
2023-02-24T04:36:12.509Z,22.30
2023-02-24T04:38:40.379Z,24.30
2023-02-24T04:41:08.129Z,23.70
2023-02-24T04:43:36.016Z,18.20
2023-02-24T04:46:07.625Z,20.80
2023-02-24T04:48:36.148Z,20.10
2023-02-24T04:51:06.697Z,25.80
2023-02-24T04:53:34.084Z,23.10
2023-02-24T04:56:09.267Z,16.60
2023-02-24T04:58:39.644Z,23.40
2023-02-24T05:01:11.265Z,24.20
2023-02-24T05:03:44.262Z,19.70
2023-02-24T05:09:01.107Z,21.00
2023-02-24T05:11:34.513Z,27.20
2023-02-24T05:14:04.896Z,22.40
2023-02-24T05:16:32.700Z,25.10
2023-02-24T05:19:20.264Z,22.20
2023-02-24T05:21:48.919Z,25.30
2023-02-24T05:24:16.883Z,23.40
2023-02-24T05:26:49.557Z,22.10
2023-02-24T05:29:18.746Z,25.10
2023-02-24T05:31:46.776Z,24.40
2023-02-24T05:34:17.117Z,18.30
2023-02-24T05:36:46.233Z,21.40
2023-02-24T05:39:18.977Z,21.80
2023-02-24T05:41:48.291Z,23.80
2023-02-24T05:46:59.129Z,21.40
2023-02-24T05:49:32.514Z,23.10
2023-02-24T05:52:01.763Z,19.80
2023-02-24T05:54:30.957Z,23.60
2023-02-24T05:57:04.759Z,22.30
2023-02-24T05:59:33.563Z,22.30
2023-02-24T06:02:07.433Z,22.30
2023-02-24T06:04:40.103Z,23.60
2023-02-24T06:07:25.332Z,21.40
2023-02-24T06:09:58.018Z,21.30
2023-02-24T06:12:30.471Z,21.10
2023-02-24T06:15:11.233Z,22.60
2023-02-24T06:17:41.757Z,20.90
2023-02-24T06:20:15.465Z,24.20
2023-02-24T06:22:46.498Z,21.80
2023-02-24T06:25:15.417Z,22.00
2023-02-24T06:27:44.893Z,20.30
2023-02-24T06:30:14.807Z,18.60
2023-02-24T06:32:46.770Z,22.90
2023-02-24T06:35:16.499Z,21.10
2023-02-24T06:37:50.566Z,21.70
2023-02-24T06:40:17.883Z,17.10
2023-02-24T06:42:49.177Z,20.80
2023-02-24T06:45:17.584Z,20.70
2023-02-24T06:47:48.320Z,17.20
2023-02-24T06:50:21.397Z,17.10
2023-02-24T06:52:49.690Z,14.80
2023-02-24T06:55:26.529Z,18.20
2023-02-24T06:57:58.321Z,21.70
2023-02-24T07:00:36.713Z,13.00
2023-02-24T07:03:16.583Z,27.80
2023-02-24T07:05:53.718Z,15.20
2023-02-24T07:08:22.462Z,16.40
2023-02-24T07:10:57.857Z,16.10
2023-02-24T07:13:25.566Z,14.90
2023-02-24T07:16:06.625Z,15.60
2023-02-24T07:18:40.977Z,15.60
2023-02-24T07:21:12.857Z,12.40
2023-02-24T07:23:41.220Z,17.20
2023-02-24T07:26:16.784Z,14.70
2023-02-24T07:28:47.647Z,16.10
2023-02-24T07:31:20.828Z,17.20
2023-02-24T07:33:49.187Z,18.90
2023-02-24T07:36:22.648Z,14.40
2023-02-24T07:38:53.734Z,14.80
2023-02-24T07:41:22.359Z,15.10
2023-02-24T07:43:53.145Z,12.90
2023-02-24T07:46:23.988Z,12.80
2023-02-24T07:48:52.035Z,13.40
2023-02-24T07:51:21.552Z,11.50
2023-02-24T07:53:53.886Z,13.40
2023-02-24T07:56:26.476Z,16.60
2023-02-24T07:58:58.887Z,12.90
2023-02-24T08:01:27.834Z,14.60
2023-02-24T08:03:56.918Z,14.10
2023-02-24T08:06:32.706Z,14.40
2023-02-24T08:09:16.261Z,14.80
2023-02-24T08:11:51.852Z,15.20
2023-02-24T08:14:52.775Z,12.40
2023-02-24T08:17:26.930Z,11.10
2023-02-24T08:20:27.003Z,15.50
2023-02-24T08:22:55.112Z,13.00
2023-02-24T08:25:37.790Z,14.00
2023-02-24T08:30:44.472Z,10.70
2023-02-24T08:33:31.698Z,11.50
2023-02-24T08:36:02.171Z,13.20
2023-02-24T08:38:41.406Z,14.10
2023-02-24T08:41:17.342Z,12.60
2023-02-24T08:43:45.980Z,10.50
2023-02-24T08:46:19.330Z,13.20
2023-02-24T08:48:55.055Z,12.80
2023-02-24T08:51:34.283Z,9.20
2023-02-24T08:54:19.010Z,11.00
2023-02-24T08:56:56.215Z,8.60
2023-02-24T08:59:37.928Z,9.90
2023-02-24T09:02:22.798Z,11.90
2023-02-24T09:05:03.818Z,9.20
2023-02-24T09:07:40.126Z,7.20
2023-02-24T09:10:17.286Z,11.00
2023-02-24T09:13:00.721Z,8.50
2023-02-24T09:15:40.894Z,7.20
2023-02-24T09:18:09.230Z,6.70
2023-02-24T09:20:55.856Z,7.50
2023-02-24T09:23:29.600Z,7.10
2023-02-24T09:26:10.476Z,11.30
2023-02-24T09:28:48.223Z,6.90
2023-02-24T09:31:17.463Z,9.00
2023-02-24T09:33:50.502Z,8.10
2023-02-24T09:36:27.205Z,8.20
2023-02-24T09:38:59.540Z,9.50
2023-02-24T09:42:17.442Z,9.80
2023-02-24T09:44:52.345Z,8.80
2023-02-24T09:47:39.228Z,7.00
2023-02-24T09:50:51.241Z,6.40
2023-02-24T09:53:13.730Z,7.50
2023-02-24T09:55:59.997Z,10.10
2023-02-24T09:58:44.116Z,6.30
2023-02-24T10:01:21.107Z,10.00
2023-02-24T10:04:21.381Z,8.00
2023-02-24T10:07:08.254Z,7.30
2023-02-24T10:09:40.992Z,12.90
2023-02-24T10:12:17.149Z,8.90
2023-02-24T10:14:53.890Z,6.50
2023-02-24T10:17:40.513Z,11.50
2023-02-24T10:20:30.523Z,9.00
2023-02-24T10:23:29.561Z,6.80
2023-02-24T10:27:00.119Z,5.80
2023-02-24T10:29:47.003Z,7.40
2023-02-24T10:32:33.340Z,7.70
2023-02-24T10:35:01.542Z,7.90
2023-02-24T10:37:29.867Z,10.90
2023-02-24T10:39:59.320Z,9.10
2023-02-24T10:42:33.946Z,7.30
2023-02-24T10:45:34.795Z,8.80
2023-02-24T10:48:07.798Z,9.00
2023-02-24T10:50:55.413Z,13.00
2023-02-24T10:53:39.217Z,7.80
2023-02-24T10:56:41.105Z,9.60
2023-02-24T10:59:32.692Z,6.80
2023-02-24T11:02:28.921Z,9.90
2023-02-24T11:05:04.027Z,8.50
2023-02-24T11:07:53.474Z,8.00
2023-02-24T11:10:32.131Z,13.30
2023-02-24T11:13:18.840Z,7.40
2023-02-24T11:16:10.638Z,9.10
2023-02-24T11:18:58.772Z,7.00
2023-02-24T11:21:27.529Z,7.60
2023-02-24T11:23:59.257Z,12.40
2023-02-24T11:26:37.325Z,8.30
2023-02-24T11:29:38.978Z,6.10
2023-02-24T11:32:16.464Z,7.30
2023-02-24T11:35:12.655Z,9.50
2023-02-24T11:37:50.116Z,9.40
2023-02-24T11:40:24.735Z,9.80
2023-02-24T11:42:58.202Z,9.00
2023-02-24T11:45:37.576Z,7.00
2023-02-24T11:48:31.644Z,6.60
2023-02-24T11:51:12.779Z,8.70
2023-02-24T11:53:51.341Z,8.20
2023-02-24T11:56:22.674Z,9.80
2023-02-24T11:59:04.751Z,9.10
2023-02-24T12:01:40.507Z,7.70
2023-02-24T12:04:32.503Z,5.50
2023-02-24T12:07:10.900Z,5.70
2023-02-24T12:09:49.928Z,8.50
2023-02-24T12:12:21.268Z,8.90
2023-02-24T12:15:13.591Z,8.30
2023-02-24T12:18:05.269Z,12.10
2023-02-24T12:21:06.547Z,6.10
2023-02-24T12:23:37.513Z,6.10
2023-02-24T12:26:08.480Z,8.10
2023-02-24T12:29:06.868Z,6.20
2023-02-24T12:31:37.075Z,7.80
2023-02-24T12:34:20.373Z,7.20
2023-02-24T12:37:18.633Z,10.20
2023-02-24T12:39:56.296Z,7.20
2023-02-24T12:42:56.748Z,11.70
2023-02-24T12:45:53.360Z,8.30
2023-02-24T12:48:25.574Z,7.20
2023-02-24T12:51:13.080Z,6.30
2023-02-24T12:54:05.270Z,6.40
2023-02-24T12:56:59.271Z,10.20
2023-02-24T12:59:32.348Z,7.60
2023-02-24T13:02:29.356Z,9.10
2023-02-24T13:05:41.149Z,9.10
2023-02-24T13:08:56.276Z,8.00
2023-02-24T13:11:59.255Z,6.70
2023-02-24T13:14:37.224Z,7.80
2023-02-24T13:17:19.265Z,9.00
2023-02-24T13:19:48.276Z,7.30
2023-02-24T13:22:36.784Z,10.70
2023-02-24T13:25:21.245Z,6.80
2023-02-24T13:28:00.002Z,9.40
2023-02-24T13:30:40.280Z,9.60
2023-02-24T13:33:44.356Z,7.40
2023-02-24T13:36:24.332Z,7.60
2023-02-24T13:39:44.436Z,7.10
2023-02-24T13:45:20.649Z,6.70
2023-02-24T13:48:39.284Z,5.20
2023-02-24T14:01:20.528Z,8.60
2023-02-24T14:04:24.170Z,7.00
2023-02-24T14:06:56.016Z,8.80
2023-02-24T14:09:31.517Z,10.20
2023-02-24T14:12:16.700Z,8.30
2023-02-24T14:14:50.145Z,8.30
2023-02-24T14:17:26.608Z,6.60
2023-02-24T14:20:07.918Z,8.40
2023-02-24T14:22:46.343Z,8.70
2023-02-24T14:25:16.125Z,7.30
2023-02-24T14:27:53.045Z,9.60
2023-02-24T14:30:36.383Z,6.50
2023-02-24T14:33:26.662Z,8.50
2023-02-24T14:35:58.967Z,7.70
2023-02-24T14:38:36.530Z,6.60
2023-02-24T14:45:15.665Z,6.10
2023-02-24T14:48:28.100Z,9.00
2023-02-24T14:51:04.603Z,6.20
2023-02-24T14:53:44.428Z,9.20
2023-02-24T14:56:14.004Z,12.40
2023-02-24T15:01:50.192Z,9.10
2023-02-24T15:04:28.642Z,12.70
2023-02-24T15:06:58.329Z,9.90
2023-02-24T15:09:30.006Z,12.10
2023-02-24T15:11:58.787Z,10.40
2023-02-24T15:14:30.320Z,8.50
2023-02-24T15:17:13.363Z,12.40
2023-02-24T15:19:49.037Z,9.30
2023-02-24T15:22:59.818Z,28.10
2023-02-24T15:25:45.329Z,15.40
2023-02-24T15:28:33.837Z,11.70
2023-02-24T15:31:12.622Z,8.60
2023-02-24T15:33:54.753Z,11.20
2023-02-24T15:36:25.599Z,11.20
2023-02-24T15:39:06.460Z,9.10
2023-02-24T15:41:42.465Z,11.50
2023-02-24T15:44:32.571Z,10.20
2023-02-24T15:47:35.589Z,10.10
2023-02-24T15:50:22.989Z,8.50
2023-02-24T15:52:55.879Z,9.60
2023-02-24T15:55:28.745Z,11.10
2023-02-24T15:58:02.858Z,14.70
2023-02-24T16:03:05.408Z,13.60
2023-02-24T16:05:38.558Z,8.40
2023-02-24T16:08:20.750Z,8.80
2023-02-24T16:11:04.297Z,12.10
2023-02-24T16:13:42.424Z,10.70
2023-02-24T16:16:19.627Z,11.50
2023-02-24T16:18:53.262Z,12.70
2023-02-24T16:21:26.194Z,13.90
2023-02-24T16:23:58.391Z,11.20
2023-02-24T16:26:33.670Z,10.00
2023-02-24T16:32:05.066Z,9.90
2023-02-24T16:37:30.206Z,10.30
2023-02-24T16:40:13.744Z,10.80
2023-02-24T16:42:43.720Z,9.10
2023-02-24T16:45:15.514Z,9.20
2023-02-24T16:47:46.865Z,9.90
2023-02-24T16:50:28.613Z,8.50
2023-02-24T16:53:07.423Z,8.80
2023-02-24T16:55:41.229Z,10.20
2023-02-24T16:58:14.844Z,8.50
2023-02-24T17:00:48.664Z,12.10
2023-02-24T17:03:35.343Z,9.60
2023-02-24T17:06:09.118Z,9.60
2023-02-24T17:08:55.508Z,9.90
2023-02-24T17:11:25.673Z,13.90
2023-02-24T17:13:54.928Z,6.80
2023-02-24T17:16:30.304Z,6.00
2023-02-24T17:19:00.788Z,7.00
2023-02-24T17:21:31.373Z,10.10
2023-02-24T17:24:05.359Z,8.20
2023-02-24T17:26:36.221Z,8.30
2023-02-24T17:29:16.101Z,11.00
2023-02-24T17:31:45.199Z,9.60
2023-02-24T17:34:16.827Z,10.40
2023-02-24T17:36:47.553Z,18.60
2023-02-24T17:39:27.371Z,11.50
2023-02-24T17:41:56.082Z,13.60
2023-02-24T17:44:25.279Z,13.00
2023-02-24T17:46:55.911Z,17.60
2023-02-24T17:49:24.799Z,11.70
2023-02-24T17:51:54.406Z,13.90
2023-02-24T17:54:30.346Z,15.20
2023-02-24T17:57:00.313Z,13.60
2023-02-24T17:59:31.606Z,13.10
2023-02-24T18:02:05.187Z,16.40
2023-02-24T18:04:37.194Z,14.30
2023-02-24T18:07:09.470Z,16.80
2023-02-24T18:09:41.523Z,15.00
2023-02-24T18:12:15.047Z,16.80
2023-02-24T18:14:47.338Z,16.80
2023-02-24T18:17:34.216Z,21.80
2023-02-24T18:20:03.098Z,17.80
2023-02-24T18:22:32.831Z,16.40
2023-02-24T18:25:01.814Z,17.10
2023-02-24T18:27:33.570Z,18.60
2023-02-24T18:30:04.710Z,21.50
2023-02-24T18:32:35.400Z,17.80
2023-02-24T18:37:35.366Z,19.70
2023-02-24T18:40:05.125Z,13.80
2023-02-24T18:42:35.314Z,10.80
2023-02-24T18:45:08.595Z,10.80
2023-02-24T18:47:40.365Z,14.10
2023-02-24T18:50:11.524Z,11.50
2023-02-24T18:52:41.816Z,11.80
2023-02-24T18:55:18.408Z,18.00
2023-02-24T18:58:15.165Z,12.40
2023-02-24T19:00:49.142Z,12.80
2023-02-24T19:03:25.082Z,10.90
2023-02-24T19:05:55.220Z,14.30
2023-02-24T19:08:28.099Z,10.30
2023-02-24T19:11:28.946Z,14.10
2023-02-24T19:15:05.541Z,13.40
2023-02-24T19:17:31.132Z,15.80
2023-02-24T19:20:16.326Z,15.80
2023-02-24T19:23:08.449Z,13.80
2023-02-24T19:25:53.832Z,14.20
2023-02-24T19:28:30.337Z,16.10
2023-02-24T19:31:03.733Z,11.60
2023-02-24T19:33:32.582Z,14.40
2023-02-24T19:36:02.280Z,13.70
2023-02-24T19:38:32.625Z,15.80
2023-02-24T19:41:02.512Z,16.30
2023-02-24T19:43:50.973Z,18.50
2023-02-24T19:46:26.417Z,15.10
2023-02-24T19:48:57.624Z,16.90
2023-02-24T19:51:26.964Z,16.70
2023-02-24T19:53:59.542Z,15.10
2023-02-24T19:56:31.493Z,15.30
2023-02-24T19:59:04.511Z,16.30
2023-02-24T20:01:38.931Z,15.20
2023-02-24T20:04:15.288Z,17.60
2023-02-24T20:06:47.930Z,19.20
2023-02-24T20:09:22.096Z,14.60
2023-02-24T20:11:52.188Z,16.20
2023-02-24T20:14:46.002Z,15.10
2023-02-24T20:20:00.935Z,16.60
2023-02-24T20:22:31.109Z,19.30
2023-02-24T20:25:00.772Z,18.40
2023-02-24T20:27:35.420Z,19.90
2023-02-24T20:30:08.823Z,17.60
2023-02-24T20:33:06.146Z,21.90
2023-02-24T20:35:40.188Z,15.90
2023-02-24T20:38:13.487Z,17.90
2023-02-24T20:40:42.953Z,19.30
2023-02-24T20:43:18.416Z,18.20
2023-02-24T20:45:57.783Z,22.60
2023-02-24T20:48:26.859Z,16.70
2023-02-24T20:50:57.046Z,17.90
2023-02-24T20:53:28.160Z,20.90
2023-02-24T20:56:04.182Z,18.00
2023-02-24T20:58:33.555Z,19.10
2023-02-24T21:01:10.353Z,24.40
2023-02-24T21:03:53.748Z,20.30
2023-02-24T21:06:35.652Z,25.20
2023-02-24T21:09:20.821Z,20.20
2023-02-24T21:11:52.578Z,20.60
2023-02-24T21:14:23.253Z,26.80
2023-02-24T21:16:56.816Z,22.30
2023-02-24T21:19:27.980Z,22.60
2023-02-24T21:21:57.358Z,20.80
2023-02-24T21:24:37.130Z,21.00
2023-02-24T21:27:06.870Z,20.80
2023-02-24T21:29:37.381Z,23.70
2023-02-24T21:32:06.455Z,20.40
2023-02-24T21:34:35.629Z,19.50
2023-02-24T21:37:06.409Z,19.20
2023-02-24T21:39:46.178Z,21.30
2023-02-24T21:42:17.799Z,24.50
2023-02-24T21:44:47.064Z,20.70
2023-02-24T21:47:15.845Z,18.60
2023-02-24T21:49:46.499Z,20.20
2023-02-24T21:52:16.699Z,19.90
2023-02-24T21:54:45.596Z,22.00
2023-02-24T21:57:15.429Z,25.50
2023-02-24T21:59:45.662Z,21.60
2023-02-24T22:02:17.192Z,22.70
2023-02-24T22:04:47.817Z,19.50
2023-02-24T22:07:20.187Z,19.70
2023-02-24T22:09:50.095Z,20.10
2023-02-24T22:12:20.829Z,19.40
2023-02-24T22:14:53.281Z,23.60
2023-02-24T22:17:23.319Z,21.40
2023-02-24T22:19:57.185Z,18.80
2023-02-24T22:22:27.552Z,20.20
2023-02-24T22:24:58.390Z,20.30
2023-02-24T22:27:31.578Z,24.00
2023-02-24T22:30:00.486Z,21.80
2023-02-24T22:32:31.205Z,19.60
2023-02-24T22:34:59.999Z,22.30
2023-02-24T22:37:33.894Z,17.00
2023-02-24T22:40:02.903Z,19.60
2023-02-24T22:42:34.051Z,19.80
2023-02-24T22:45:02.929Z,18.20
2023-02-24T22:47:32.429Z,17.50
2023-02-24T22:50:01.848Z,24.80
2023-02-24T22:52:31.042Z,22.10
2023-02-24T22:55:00.034Z,17.80
2023-02-24T22:57:32.923Z,19.40
2023-02-24T23:00:05.796Z,18.80
2023-02-24T23:02:34.910Z,19.20
2023-02-24T23:05:04.295Z,16.90
2023-02-24T23:07:48.855Z,17.10
2023-02-24T23:10:20.207Z,18.10
2023-02-24T23:12:55.915Z,20.70
2023-02-24T23:15:24.778Z,35.00
2023-02-24T23:17:59.357Z,24.90
2023-02-24T23:20:28.352Z,19.70
2023-02-24T23:22:57.249Z,29.00
2023-02-24T23:25:26.135Z,18.70
2023-02-24T23:27:55.126Z,22.40
2023-02-24T23:30:23.815Z,20.00
2023-02-24T23:32:52.660Z,33.80
2023-02-24T23:35:24.047Z,22.80
2023-02-24T23:37:52.837Z,24.30
2023-02-24T23:40:26.389Z,19.40
2023-02-24T23:42:55.642Z,21.80
2023-02-24T23:45:25.815Z,19.40
2023-02-24T23:47:55.366Z,19.00
2023-02-24T23:50:24.257Z,17.30
2023-02-24T23:52:53.892Z,17.70
2023-02-24T23:55:22.865Z,17.00
2023-02-24T23:57:53.703Z,22.80
